Time;durP1;ratioP1;P1;durP2;ratioP2;P2;SDS_P1;SDS_P2;PMS_P1;PMS_P2;Temp;Humidity;BMP_temperature;BMP_pressure;BME280_temperature;BME280_humidity;BME280_pressure;Samples;Min_cycle;Max_cycle;Signal;HPM_P1;HPM_P2
2022/08/07 00:00:31;;;;;;;;;;;;;;;13.60;76.54;102596.75;5024766;28;20037;-72
2022/08/07 00:02:57;;;;;;;9.20;4.63;;;;;;;13.35;79.12;102600.03;5023738;28;20456;-71
2022/08/07 00:05:23;;;;;;;8.65;5.10;;;;;;;13.25;79.91;102599.59;5022762;28;20091;-72
2022/08/07 00:07:49;;;;;;;9.20;4.95;;;;;;;13.22;80.49;102597.22;5023927;28;20026;-72
2022/08/07 00:10:14;;;;;;;8.13;5.13;;;;;;;13.16;81.14;102596.09;5023788;28;20025;-71
2022/08/07 00:12:42;;;;;;;7.82;5.28;;;;;;;13.12;81.16;102596.72;5024256;28;20419;-71
2022/08/07 00:15:08;;;;;;;11.07;5.88;;;;;;;13.14;81.17;102597.38;5024294;28;20044;-71
2022/08/07 00:17:33;;;;;;;9.18;5.72;;;;;;;13.11;81.81;102597.78;5023788;28;20396;-71
2022/08/07 00:19:58;;;;;;;9.02;5.60;;;;;;;13.12;81.99;102591.19;5022837;28;20164;-71
2022/08/07 00:22:23;;;;;;;9.70;6.20;;;;;;;13.11;82.16;102593.09;5022853;28;20036;-71
2022/08/07 00:24:49;;;;;;;11.15;5.80;;;;;;;13.10;82.17;102590.56;5024006;28;20542;-71
2022/08/07 00:27:14;;;;;;;9.60;6.15;;;;;;;13.08;82.39;102584.41;5023597;28;20060;-71
2022/08/07 00:29:39;;;;;;;11.38;6.10;;;;;;;13.06;82.09;102575.47;5023971;28;21087;-72
2022/08/07 00:32:05;;;;;;;9.27;6.30;;;;;;;13.06;82.23;102581.84;5023014;28;20033;-71
2022/08/07 00:34:31;;;;;;;9.50;5.85;;;;;;;13.09;81.94;102575.06;5023079;28;20386;-71
2022/08/07 00:36:56;;;;;;;10.07;5.75;;;;;;;13.04;82.23;102570.16;5022962;28;20037;-71
2022/08/07 00:39:21;;;;;;;9.48;6.07;;;;;;;12.99;81.70;102570.78;5005628;28;20084;-71
2022/08/07 00:41:56;;;;;;;9.77;5.40;;;;;;;12.95;82.02;102568.63;5023665;28;20033;-71
2022/08/07 00:44:21;;;;;;;9.68;5.43;;;;;;;12.93;81.89;102568.84;5023143;28;20041;-71
2022/08/07 00:46:47;;;;;;;9.55;6.40;;;;;;;12.90;82.10;102557.38;5033220;28;20029;-71
2022/08/07 00:49:12;;;;;;;9.65;6.03;;;;;;;12.90;81.86;102560.13;5033119;28;20021;-72
2022/08/07 00:51:38;;;;;;;9.25;6.15;;;;;;;12.85;81.80;102559.88;5022742;28;20521;-71
2022/08/07 00:54:03;;;;;;;9.57;6.80;;;;;;;12.89;82.24;102559.28;5022661;28;20087;-71
2022/08/07 00:56:29;;;;;;;12.40;6.70;;;;;;;12.85;82.55;102560.72;5023153;28;20022;-71
2022/08/07 00:58:55;;;;;;;9.75;6.72;;;;;;;12.87;82.45;102564.13;5022944;28;20515;-71
2022/08/07 01:01:21;;;;;;;10.57;6.97;;;;;;;12.86;82.68;102559.66;5022553;28;20057;-68
2022/08/07 01:03:50;;;;;;;12.13;7.32;;;;;;;12.76;83.06;102553.69;5005040;28;20191;-71
2022/08/07 01:08:44;;;;;;;11.48;6.85;;;;;;;12.78;82.96;102561.78;5036427;28;20052;-69
2022/08/07 01:11:12;;;;;;;9.63;7.10;;;;;;;12.75;83.12;102551.97;5042149;28;20029;-69
2022/08/07 01:13:37;;;;;;;11.63;7.27;;;;;;;12.66;82.85;102553.19;5042841;28;20142;-69
2022/08/07 01:16:04;;;;;;;13.07;7.93;;;;;;;12.64;83.68;102555.31;5041813;28;20147;-70
2022/08/07 01:18:29;;;;;;;10.93;7.40;;;;;;;12.60;84.12;102554.00;5041950;28;20506;-70
2022/08/07 01:21:08;;;;;;;11.82;7.25;;;;;;;12.60;84.07;102554.88;5041954;28;20122;-69
2022/08/07 01:23:34;;;;;;;12.98;8.30;;;;;;;12.58;83.86;102551.47;5042683;28;20029;-70
2022/08/07 01:26:00;;;;;;;12.10;8.18;;;;;;;12.57;83.89;102543.38;5039871;28;20378;-69
2022/08/07 01:28:25;;;;;;;11.65;7.95;;;;;;;12.56;84.15;102539.78;5022361;28;20032;-70
2022/08/07 01:30:52;;;;;;;12.50;8.43;;;;;;;12.53;84.02;102537.44;5021917;28;20021;-67
2022/08/07 01:33:18;;;;;;;11.60;7.80;;;;;;;12.54;83.89;102536.38;5022885;28;20025;-69
2022/08/07 01:35:44;;;;;;;13.55;7.80;;;;;;;12.50;83.94;102537.00;5028719;28;20787;-70
2022/08/07 01:38:10;;;;;;;12.38;8.30;;;;;;;12.43;84.21;102531.44;5045745;28;20056;-69
2022/08/07 01:40:36;;;;;;;12.35;8.25;;;;;;;12.42;84.69;102535.25;5046273;28;20040;-69
2022/08/07 01:43:02;;;;;;;14.65;8.70;;;;;;;12.39;85.05;102541.16;5046442;28;20025;-69
2022/08/07 01:45:27;;;;;;;13.48;8.77;;;;;;;12.41;84.87;102530.78;5042443;28;20392;-69
2022/08/07 01:47:53;;;;;;;14.68;9.38;;;;;;;12.39;84.51;102535.66;5045906;28;20097;-70
2022/08/07 01:50:18;;;;;;;15.02;9.38;;;;;;;12.39;84.54;102525.47;5045526;28;20029;-70
2022/08/07 01:52:46;;;;;;;14.45;10.10;;;;;;;12.36;85.12;102533.28;5046031;28;20717;-69
2022/08/07 01:55:14;;;;;;;13.18;9.60;;;;;;;12.30;85.60;102536.84;5045996;28;20094;-69
2022/08/07 01:57:41;;;;;;;14.98;9.93;;;;;;;12.29;85.11;102530.50;5046117;28;20100;-69
2022/08/07 02:00:11;;;;;;;14.70;9.75;;;;;;;12.36;85.01;102528.63;5036871;28;20075;-69
2022/08/07 02:02:52;;;;;;;14.98;9.77;;;;;;;12.37;84.98;102524.84;5026214;28;20041;-69
2022/08/07 02:05:24;;;;;;;13.90;9.85;;;;;;;12.29;85.38;102521.38;5024904;28;20480;-70
2022/08/07 02:07:52;;;;;;;16.52;9.80;;;;;;;12.28;85.48;102528.78;5025901;28;20037;-69
2022/08/07 02:10:22;;;;;;;14.38;10.18;;;;;;;12.25;85.47;102534.69;5026082;28;20022;-70
2022/08/07 02:12:48;;;;;;;15.00;9.30;;;;;;;12.23;85.80;102524.94;5026023;28;20045;-70
2022/08/07 02:15:16;;;;;;;15.45;10.15;;;;;;;12.19;86.05;102528.09;5025567;28;20036;-70
2022/08/07 02:17:43;;;;;;;16.80;11.05;;;;;;;12.19;85.99;102533.59;5024393;28;20439;-69
2022/08/07 02:20:10;;;;;;;16.13;10.32;;;;;;;12.17;86.06;102534.88;5023844;28;20044;-69
2022/08/07 02:22:37;;;;;;;16.98;10.70;;;;;;;12.15;86.07;102523.19;5026020;28;20029;-69
2022/08/07 02:25:06;;;;;;;17.38;10.65;;;;;;;12.17;85.81;102526.59;5026289;28;20435;-69
2022/08/07 02:27:33;;;;;;;15.80;10.77;;;;;;;12.15;86.23;102523.19;5045359;28;20059;-69
2022/08/07 02:30:00;;;;;;;15.05;11.23;;;;;;;12.14;86.54;102521.47;5045467;28;20052;-70
2022/08/07 02:32:26;;;;;;;15.20;10.85;;;;;;;12.14;86.26;102527.00;5043104;28;20017;-70
2022/08/07 02:34:53;;;;;;;15.98;11.13;;;;;;;12.18;86.67;102514.53;5043831;28;20116;-70
2022/08/07 02:37:20;;;;;;;16.85;11.40;;;;;;;12.12;86.56;102520.84;5045180;28;20024;-69
2022/08/07 02:39:47;;;;;;;17.63;11.63;;;;;;;12.12;86.28;102520.84;5027913;28;20020;-69
2022/08/07 02:42:13;;;;;;;16.27;12.00;;;;;;;12.04;86.57;102515.47;5044800;28;20041;-69
2022/08/07 02:44:40;;;;;;;14.63;11.35;;;;;;;12.03;86.47;102522.88;5045135;28;20506;-69
2022/08/07 02:47:07;;;;;;;15.77;11.43;;;;;;;12.01;87.09;102513.09;5044831;28;20027;-69
2022/08/07 02:49:32;;;;;;;17.45;11.70;;;;;;;11.97;87.50;102509.91;5026340;28;20037;-70
2022/08/07 02:52:02;;;;;;;16.33;11.15;;;;;;;11.93;87.67;102509.44;5024782;28;20387;-70
2022/08/07 02:54:29;;;;;;;16.88;10.73;;;;;;;11.95;87.67;102512.00;5025072;28;20890;-70
2022/08/07 02:56:58;;;;;;;15.18;10.88;;;;;;;11.89;87.22;102508.13;5024441;28;20357;-70
2022/08/07 02:59:25;;;;;;;15.20;10.57;;;;;;;11.89;87.25;102505.38;5025256;28;20018;-70
2022/08/07 03:01:53;;;;;;;16.42;11.63;;;;;;;11.87;87.33;102502.00;5024725;28;20032;-70
2022/08/07 03:04:21;;;;;;;16.07;10.67;;;;;;;11.86;87.70;102497.53;5024387;28;20065;-69
2022/08/07 03:06:48;;;;;;;16.42;11.05;;;;;;;11.86;87.32;102505.81;5024854;28;20111;-69
2022/08/07 03:09:13;;;;;;;15.57;12.05;;;;;;;11.93;87.65;102508.59;5024659;28;20472;-70
2022/08/07 03:11:40;;;;;;;17.83;12.50;;;;;;;11.86;87.70;102514.06;5024490;28;20082;-71
2022/08/07 03:14:06;;;;;;;18.83;12.70;;;;;;;11.84;87.74;102515.28;5024330;28;20108;-70
2022/08/07 03:16:33;;;;;;;19.77;12.43;;;;;;;11.81;88.14;102511.03;5040577;28;20116;-70
2022/08/07 03:19:00;;;;;;;16.90;11.48;;;;;;;11.75;88.11;102510.94;5043181;28;20023;-70
2022/08/07 03:21:26;;;;;;;15.23;10.30;;;;;;;11.64;87.00;102510.41;5044375;28;20430;-70
2022/08/07 03:23:54;;;;;;;15.05;10.63;;;;;;;11.59;87.56;102512.06;5042732;28;20025;-70
2022/08/07 03:26:23;;;;;;;14.15;10.15;;;;;;;11.61;87.96;102510.00;5044060;28;20541;-70
2022/08/07 03:28:49;;;;;;;15.93;10.70;;;;;;;11.59;87.46;102512.91;5044676;28;20456;-70
2022/08/07 03:31:18;;;;;;;17.30;11.25;;;;;;;11.52;87.65;102505.66;5043761;28;20032;-72
2022/08/07 03:33:46;;;;;;;16.70;11.75;;;;;;;11.57;87.54;102503.16;5043498;28;20067;-71
2022/08/07 03:36:13;;;;;;;;;;;;;;;11.70;85.50;102506.88;5044110;28;20031;-71
2022/08/07 03:38:40;;;;;;;17.37;11.33;;;;;;;11.54;86.84;102503.56;5044379;28;19996;-71
2022/08/07 03:41:06;;;;;;;15.30;11.13;;;;;;;11.55;87.50;102505.25;5042511;28;20040;-70
2022/08/07 03:43:33;;;;;;;17.90;11.82;;;;;;;11.46;87.76;102503.69;5043616;28;20434;-70
2022/08/07 03:46:00;;;;;;;18.77;12.50;;;;;;;11.46;88.19;102498.19;5043907;28;20159;-70
2022/08/07 03:48:27;;;;;;;17.70;11.57;;;;;;;11.44;88.37;102501.13;5043017;28;20918;-70
2022/08/07 03:50:55;;;;;;;17.15;11.80;;;;;;;11.44;88.28;102501.13;5025963;28;20112;-69
2022/08/07 03:53:21;;;;;;;16.40;10.85;;;;;;;11.43;87.96;102505.78;5044148;28;20029;-70
2022/08/07 03:55:48;;;;;;;17.75;12.07;;;;;;;11.37;88.18;102502.97;5043822;28;20181;-71
2022/08/07 03:58:13;;;;;;;16.47;11.83;;;;;;;11.38;88.71;102504.66;5018881;28;20018;-71
2022/08/07 04:00:40;;;;;;;19.20;12.57;;;;;;;11.35;89.01;102507.78;5043895;28;20036;-71
2022/08/07 04:03:05;;;;;;;16.38;11.60;;;;;;;11.36;89.27;102520.53;5042797;28;20074;-70
2022/08/07 04:05:34;;;;;;;17.33;12.65;;;;;;;11.32;89.17;102522.81;5043149;28;20032;-70
2022/08/07 04:08:01;;;;;;;16.35;11.98;;;;;;;11.31;89.19;102512.00;5043284;28;20148;-70
2022/08/07 04:10:26;;;;;;;18.17;12.82;;;;;;;11.27;89.54;102522.53;5043288;28;20029;-70
2022/08/07 04:12:51;;;;;;;18.55;13.35;;;;;;;11.28;89.84;102523.38;5043245;28;20017;-72
2022/08/07 04:15:17;;;;;;;23.55;14.15;;;;;;;11.32;90.74;102528.31;5025375;28;20530;-70
2022/08/07 04:17:43;;;;;;;19.67;12.90;;;;;;;11.34;90.65;102517.09;5042619;28;20377;-70
2022/08/07 04:20:11;;;;;;;18.30;13.05;;;;;;;11.37;90.95;102535.97;5042250;28;20036;-70
2022/08/07 04:22:38;;;;;;;22.10;14.00;;;;;;;11.40;91.19;102536.44;5043366;28;20021;-70
2022/08/07 04:25:04;;;;;;;18.50;12.07;;;;;;;11.36;89.16;102543.38;5042461;28;20029;-70
2022/08/07 04:27:30;;;;;;;18.77;11.65;;;;;;;11.26;88.66;102534.59;5043023;28;20025;-70
2022/08/07 04:29:55;;;;;;;17.88;11.45;;;;;;;11.22;88.32;102533.28;5042987;28;20024;-70
2022/08/07 04:32:22;;;;;;;17.50;12.40;;;;;;;11.19;89.25;102533.63;5041027;28;20033;-70
2022/08/07 04:34:49;;;;;;;17.17;12.80;;;;;;;11.18;89.60;102535.53;5041528;28;20048;-69
2022/08/07 04:37:15;;;;;;;16.95;12.10;;;;;;;11.21;89.88;102531.56;5042701;28;20036;-69
2022/08/07 04:39:40;;;;;;;18.55;12.70;;;;;;;11.26;89.68;102534.59;5042892;28;20025;-69
2022/08/07 04:42:06;;;;;;;18.48;12.23;;;;;;;11.29;89.37;102536.09;5024123;28;20461;-70
2022/08/07 04:44:31;;;;;;;19.65;12.18;;;;;;;11.30;89.42;102535.03;5042679;28;20032;-70
2022/08/07 04:46:59;;;;;;;19.10;12.82;;;;;;;11.33;89.35;102534.66;5042657;28;20027;-70
2022/08/07 04:49:45;;;;;;;20.02;13.18;;;;;;;11.34;89.57;102536.34;5039171;28;20033;-70
2022/08/07 04:52:18;;;;;;;17.27;12.60;;;;;;;11.39;89.80;102534.72;5022430;28;20171;-70
2022/08/07 04:55:22;;;;;;;18.58;12.75;;;;;;;11.47;89.51;102546.66;5030682;28;20487;-70
2022/08/07 04:57:56;;;;;;;16.02;12.23;;;;;;;11.45;90.13;102544.09;5042727;28;20032;-70
2022/08/07 05:00:39;;;;;;;17.15;12.55;;;;;;;11.42;90.09;102545.34;5042788;28;20025;-70
2022/08/07 05:03:42;;;;;;;17.10;12.32;;;;;;;11.48;90.07;102553.88;5041446;28;20031;-69
2022/08/07 05:06:43;;;;;;;16.48;12.50;;;;;;;11.53;90.03;102545.88;5032782;28;20033;-70
2022/08/07 05:09:37;;;;;;;19.55;13.13;;;;;;;11.54;90.02;102542.06;5020534;28;20595;-69
2022/08/07 05:12:06;;;;;;;18.08;13.13;;;;;;;11.54;90.20;102539.31;5021856;28;20033;-69
2022/08/07 05:14:37;;;;;;;20.50;13.10;;;;;;;11.54;90.37;102542.06;5021390;28;20033;-70
2022/08/07 05:17:07;;;;;;;18.58;12.82;;;;;;;11.56;90.51;102542.75;5024111;28;20037;-68
2022/08/07 05:19:39;;;;;;;17.50;12.75;;;;;;;11.58;90.84;102543.38;5035389;28;20056;-69
2022/08/07 05:22:07;;;;;;;19.90;13.75;;;;;;;11.62;91.07;102544.72;5021316;28;20036;-69
2022/08/07 05:24:33;;;;;;;17.15;13.40;;;;;;;11.69;90.87;102551.97;5022438;28;20033;-70
2022/08/07 05:27:00;;;;;;;19.58;14.05;;;;;;;11.70;90.81;102553.66;5037628;28;20032;-69
2022/08/07 05:29:28;;;;;;;18.00;13.05;;;;;;;11.79;90.87;102548.88;5021836;28;20032;-70
2022/08/07 05:31:54;;;;;;;20.97;13.07;;;;;;;11.82;90.58;102545.78;5028634;28;20033;-70
2022/08/07 05:34:22;;;;;;;19.50;13.05;;;;;;;11.82;90.54;102556.81;5039783;28;20029;-69
2022/08/07 05:36:50;;;;;;;21.40;13.10;;;;;;;11.91;91.04;102555.63;5040119;28;20098;-70
2022/08/07 05:39:18;;;;;;;18.58;13.30;;;;;;;11.93;90.90;102559.00;5040165;28;20566;-70
2022/08/07 05:41:46;;;;;;;19.90;12.95;;;;;;;12.00;91.22;102552.72;5040105;28;20033;-70
2022/08/07 05:44:12;;;;;;;21.65;13.80;;;;;;;12.10;91.94;102558.72;5038985;28;20107;-73
2022/08/07 05:46:39;;;;;;;19.52;14.35;;;;;;;12.18;91.39;102569.63;5020489;28;20017;-72
2022/08/07 05:49:06;;;;;;;20.33;12.95;;;;;;;12.26;91.09;102563.94;5019170;28;20022;-72
2022/08/07 05:51:32;;;;;;;19.40;13.45;;;;;;;12.32;90.81;102565.91;5019153;28;20360;-72
2022/08/07 05:53:57;;;;;;;19.40;12.68;;;;;;;12.37;91.04;102563.41;5019537;28;20041;-72
2022/08/07 05:56:23;;;;;;;17.83;12.07;;;;;;;12.44;90.46;102556.03;5018540;28;20507;-71
2022/08/07 05:58:49;;;;;;;18.23;13.23;;;;;;;12.51;90.28;102557.97;5019648;28;20118;-72
2022/08/07 06:01:16;;;;;;;18.13;13.18;;;;;;;12.59;90.55;102557.81;5019856;28;20072;-71
2022/08/07 06:03:47;;;;;;;18.20;13.40;;;;;;;12.68;90.10;102562.13;5018576;28;20029;-72
2022/08/07 06:06:12;;;;;;;17.13;13.30;;;;;;;12.73;90.05;102554.09;5019347;28;20025;-71
2022/08/07 06:08:40;;;;;;;18.52;13.38;;;;;;;12.81;89.54;102561.34;5021807;28;20425;-72
2022/08/07 06:11:06;;;;;;;17.75;13.70;;;;;;;12.87;90.00;102558.59;5021625;28;20072;-72
2022/08/07 06:13:31;;;;;;;18.65;13.85;;;;;;;12.90;90.20;102558.22;5021354;28;20068;-71
2022/08/07 06:15:57;;;;;;;16.88;12.68;;;;;;;12.95;90.07;102560.38;5021897;28;20021;-73
2022/08/07 06:18:23;;;;;;;19.67;13.18;;;;;;;13.01;89.81;102561.44;5021585;28;20021;-72
2022/08/07 06:20:50;;;;;;;18.45;13.05;;;;;;;13.10;89.29;102568.50;5023515;28;20428;-72
2022/08/07 06:23:15;;;;;;;16.48;12.45;;;;;;;13.14;89.00;102559.59;5024911;28;20022;-72
2022/08/07 06:25:41;;;;;;;16.42;11.85;;;;;;;13.18;88.98;102569.19;5025571;28;20044;-72
2022/08/07 06:28:09;;;;;;;17.30;12.85;;;;;;;13.32;88.76;102570.09;5024126;28;20053;-72
2022/08/07 06:30:36;;;;;;;14.48;11.98;;;;;;;13.39;88.30;102565.47;5024007;28;20021;-72
2022/08/07 06:33:03;;;;;;;15.02;12.15;;;;;;;13.45;88.49;102570.16;5022714;28;20022;-72
2022/08/07 06:35:29;;;;;;;16.52;12.05;;;;;;;13.53;88.04;102571.00;5034788;28;20039;-72
2022/08/07 06:37:55;;;;;;;17.13;12.43;;;;;;;13.62;87.44;102564.22;5043652;28;20029;-72
2022/08/07 06:40:21;;;;;;;15.20;12.10;;;;;;;13.66;87.57;102560.84;5043693;28;20052;-72
2022/08/07 06:42:47;;;;;;;15.98;12.48;;;;;;;13.75;87.23;102558.75;5031234;28;20487;-73
2022/08/07 06:45:16;;;;;;;15.95;11.52;;;;;;;13.83;87.46;102566.81;5025003;28;20470;-72
2022/08/07 06:47:42;;;;;;;17.50;12.18;;;;;;;13.95;86.13;102556.00;5024642;28;20036;-72
2022/08/07 06:50:08;;;;;;;15.00;11.77;;;;;;;14.06;86.46;102551.75;5024299;28;20113;-72
2022/08/07 06:52:40;;;;;;;15.75;11.52;;;;;;;14.20;85.93;102545.19;5025308;28;20037;-72
2022/08/07 06:55:12;;;;;;;16.30;11.98;;;;;;;14.32;84.67;102551.75;5024504;28;20045;-72
2022/08/07 06:57:38;;;;;;;15.25;11.15;;;;;;;14.49;85.34;102539.19;5024184;28;20034;-73
2022/08/07 07:00:05;;;;;;;14.93;11.57;;;;;;;14.66;83.73;102542.38;5041892;28;20055;-72
2022/08/07 07:02:32;;;;;;;14.57;11.40;;;;;;;14.83;80.42;102544.66;5044549;28;20024;-72
2022/08/07 07:04:58;;;;;;;14.70;10.68;;;;;;;14.88;81.61;102548.47;5043639;28;20048;-72
2022/08/07 07:07:23;;;;;;;14.80;10.88;;;;;;;14.93;81.42;102545.91;5044010;28;20049;-72
2022/08/07 07:09:49;;;;;;;16.35;11.93;;;;;;;15.03;81.48;102542.66;5045060;28;20029;-72
2022/08/07 07:12:20;;;;;;;15.98;11.65;;;;;;;15.12;80.37;102548.81;5044052;28;20117;-72
2022/08/07 07:15:19;;;;;;;14.07;11.65;;;;;;;15.19;81.10;102546.84;5016788;28;20656;-73
2022/08/07 07:18:01;;;;;;;14.50;10.63;;;;;;;15.30;79.98;102549.75;4995296;28;20687;-72
2022/08/07 07:20:34;;;;;;;15.10;10.02;;;;;;;15.39;77.26;102555.06;5024321;28;20025;-72
2022/08/07 07:23:00;;;;;;;13.85;10.30;;;;;;;15.43;78.02;102550.78;5024788;28;20028;-72
2022/08/07 07:25:26;;;;;;;15.45;10.32;;;;;;;15.56;78.83;102548.78;5027198;28;20041;-72
2022/08/07 07:27:57;;;;;;;15.18;9.88;;;;;;;15.63;77.28;102557.09;5034688;28;20403;-72
2022/08/07 07:30:26;;;;;;;13.10;10.57;;;;;;;15.70;75.90;102549.56;5037974;28;20028;-73
2022/08/07 07:32:55;;;;;;;14.43;9.75;;;;;;;15.78;75.97;102549.31;5040813;28;20037;-72
2022/08/07 07:35:21;;;;;;;13.05;9.70;;;;;;;15.87;75.99;102543.50;5035912;28;20459;-72
2022/08/07 07:37:49;;;;;;;13.20;10.27;;;;;;;15.96;77.82;102544.91;5040428;28;20566;-72
2022/08/07 07:40:17;;;;;;;14.48;10.18;;;;;;;16.05;76.24;102538.00;5023834;28;20053;-72
2022/08/07 07:42:45;;;;;;;11.40;9.82;;;;;;;16.14;75.37;102533.03;5023576;28;20038;-72
2022/08/07 07:45:13;;;;;;;13.95;9.82;;;;;;;16.29;74.50;102533.53;5023463;28;20033;-72
2022/08/07 07:47:42;;;;;;;13.23;9.93;;;;;;;16.48;74.51;102532.50;5030617;28;20415;-71
2022/08/07 07:50:12;;;;;;;12.93;9.65;;;;;;;16.81;73.45;102529.38;5042063;28;20279;-72
2022/08/07 07:52:39;;;;;;;12.25;9.40;;;;;;;16.87;69.83;102522.06;5042632;28;20056;-72
2022/08/07 07:55:07;;;;;;;11.13;8.88;;;;;;;16.86;71.17;102528.69;5041885;28;20116;-72
2022/08/07 07:57:34;;;;;;;;;;;;;;;16.96;73.52;102530.94;5042551;28;20033;-72
2022/08/07 08:00:00;;;;;;;13.23;9.77;;;;;;;16.98;70.67;102520.44;5042727;28;19913;-71
2022/08/07 08:02:28;;;;;;;14.13;10.32;;;;;;;17.04;70.37;102525.91;5042947;28;20032;-72
2022/08/07 08:04:55;;;;;;;13.30;10.20;;;;;;;17.11;71.26;102528.59;5037065;28;20380;-72
2022/08/07 08:07:22;;;;;;;14.05;9.77;;;;;;;17.18;69.98;102526.56;5023181;28;20061;-69
2022/08/07 08:09:49;;;;;;;12.98;9.55;;;;;;;17.25;70.16;102524.56;5023802;28;20033;-72
2022/08/07 08:12:15;;;;;;;14.55;9.77;;;;;;;17.28;70.03;102526.84;5022446;28;20010;-72
2022/08/07 08:14:41;;;;;;;13.13;9.70;;;;;;;17.40;69.33;102529.72;5027574;28;20032;-71
2022/08/07 08:17:09;;;;;;;11.57;8.77;;;;;;;17.46;68.71;102520.41;5042771;28;20025;-71
2022/08/07 08:19:35;;;;;;;;;;;;;;;17.54;70.55;102525.66;5042541;28;20025;-71
2022/08/07 08:27:34;;;;;;;12.40;9.50;;;;;;;17.80;67.79;102523.59;5043214;28;20399;-71
2022/08/07 08:30:08;;;;;;;14.02;9.15;;;;;;;17.91;67.98;102530.25;5042699;28;20021;-70
2022/08/07 08:32:55;;;;;;;13.77;8.50;;;;;;;18.01;68.57;102522.16;5041987;28;20043;-71
2022/08/07 08:35:24;;;;;;;13.82;8.20;;;;;;;18.11;67.00;102526.03;5042396;28;20021;-70
2022/08/07 08:37:56;;;;;;;12.57;8.32;;;;;;;18.21;65.14;102530.16;5043455;28;20359;-70
2022/08/07 08:40:32;;;;;;;11.45;8.07;;;;;;;18.37;66.04;102533.06;5032884;28;20025;-70
2022/08/07 08:43:14;;;;;;;14.38;8.05;;;;;;;18.53;64.96;102527.84;5022585;28;20113;-70
2022/08/07 08:45:56;;;;;;;12.70;7.85;;;;;;;18.69;66.32;102523.50;5022604;28;20029;-70
2022/08/07 08:48:38;;;;;;;13.15;8.00;;;;;;;18.84;65.64;102524.69;5022296;28;20079;-71
2022/08/07 08:51:09;;;;;;;12.45;7.20;;;;;;;18.89;60.72;102523.97;5021990;28;20025;-70
2022/08/07 08:53:47;;;;;;;11.82;7.25;;;;;;;19.04;62.26;102529.84;5022959;28;20022;-70
2022/08/07 08:56:24;;;;;;;11.60;8.15;;;;;;;19.09;61.72;102524.38;5022245;28;20041;-70
2022/08/07 08:59:02;;;;;;;11.93;7.30;;;;;;;19.17;59.13;102524.00;5022806;28;20026;-70
2022/08/07 09:01:36;;;;;;;11.23;6.55;;;;;;;19.32;58.82;102514.28;5022270;28;20040;-70
2022/08/07 09:04:20;;;;;;;12.38;6.70;;;;;;;19.35;59.08;102513.75;5024659;28;20024;-70
2022/08/07 09:07:01;;;;;;;12.98;6.45;;;;;;;19.48;58.71;102519.03;5041828;28;20056;-71
2022/08/07 09:09:53;;;;;;;11.48;6.20;;;;;;;19.76;58.94;102515.38;5024490;28;20029;-70
2022/08/07 09:12:34;;;;;;;11.75;6.20;;;;;;;19.95;57.20;102514.03;5042721;28;20400;-70
2022/08/07 09:15:14;;;;;;;10.13;6.47;;;;;;;20.11;56.07;102511.50;5027937;28;20057;-70
2022/08/07 09:18:12;;;;;;;12.27;6.13;;;;;;;20.33;56.61;102517.19;5021646;28;20025;-70
2022/08/07 09:21:02;;;;;;;9.35;5.93;;;;;;;20.80;57.00;102503.63;5021577;28;20487;-70
2022/08/07 09:23:55;;;;;;;8.85;5.43;;;;;;;21.67;53.18;102511.06;5022437;28;20021;-70
2022/08/07 09:26:52;;;;;;;11.82;6.25;;;;;;;22.76;51.08;102506.88;5022293;28;20033;-70
2022/08/07 09:29:43;;;;;;;7.80;4.85;;;;;;;24.62;44.64;102501.25;5022620;28;20495;-69
2022/08/07 09:32:56;;;;;;;9.20;4.72;;;;;;;26.28;45.10;102505.28;5039465;28;20438;-70
2022/08/07 09:35:53;;;;;;;11.07;4.95;;;;;;;28.44;38.81;102508.50;5041325;28;20052;-70
2022/08/07 09:38:31;;;;;;;8.53;4.27;;;;;;;29.77;32.86;102508.44;5041661;28;20037;-70
2022/08/07 09:41:37;;;;;;;7.28;4.25;;;;;;;30.43;32.54;102507.56;5041662;28;20275;-70
2022/08/07 09:44:20;;;;;;;9.40;4.10;;;;;;;31.36;31.84;102502.88;5041760;28;20025;-69
2022/08/07 09:47:00;;;;;;;7.60;3.67;;;;;;;32.09;30.12;102503.00;5041946;28;20502;-70
2022/08/07 09:49:51;;;;;;;5.80;3.05;;;;;;;33.04;28.93;102496.97;5029138;28;20021;-69
2022/08/07 09:52:28;;;;;;;6.90;4.22;;;;;;;32.78;26.83;102499.94;5022019;28;20038;-69
2022/08/07 09:55:00;;;;;;;7.05;4.00;;;;;;;32.78;26.67;102491.41;5029665;28;20032;-70
2022/08/07 09:57:52;;;;;;;8.70;3.60;;;;;;;33.61;28.31;102484.16;5045231;28;20013;-70
2022/08/07 10:00:25;;;;;;;6.72;3.72;;;;;;;33.37;26.10;102484.88;5046048;28;20060;-69
2022/08/07 10:03:16;;;;;;;7.45;3.50;;;;;;;33.78;24.84;102473.47;5045138;28;20534;-69
2022/08/07 10:06:07;;;;;;;7.05;3.67;;;;;;;35.22;26.03;102473.50;5044815;28;20044;-69
2022/08/07 10:09:03;;;;;;;7.07;3.70;;;;;;;35.57;25.54;102468.06;5029783;28;20049;-69
2022/08/07 10:11:58;;;;;;;6.63;3.58;;;;;;;35.49;24.90;102467.03;5035302;28;20021;-68
2022/08/07 10:14:42;;;;;;;7.25;3.72;;;;;;;35.39;23.16;102467.53;5036186;28;20404;-69
2022/08/07 10:17:29;;;;;;;6.20;3.38;;;;;;;35.77;25.14;102449.88;5030515;28;20112;-69
2022/08/07 10:20:31;;;;;;;5.88;3.42;;;;;;;36.32;24.88;102456.72;5045305;28;20033;-69
2022/08/07 10:23:34;;;;;;;8.23;3.20;;;;;;;36.70;23.39;102460.97;5025505;28;20041;-69
2022/08/07 10:26:39;;;;;;;6.85;2.72;;;;;;;36.80;22.14;102457.53;5030783;28;20059;-69
2022/08/07 10:29:44;;;;;;;3.70;2.10;;;;;;;36.19;23.46;102460.00;5036298;28;20049;-68
2022/08/07 10:32:26;;;;;;;4.80;2.22;;;;;;;36.08;21.90;102449.13;5029611;28;20103;-69
2022/08/07 10:35:11;;;;;;;3.78;1.80;;;;;;;36.65;21.51;102452.66;5031503;28;20029;-69
2022/08/07 10:38:01;;;;;;;5.68;2.28;;;;;;;36.61;21.90;102454.59;5032983;28;20031;-69
2022/08/07 10:40:43;;;;;;;4.53;2.92;;;;;;;36.83;21.19;102451.03;5034170;28;20052;-68
2022/08/07 10:43:16;;;;;;;5.53;2.75;;;;;;;36.39;21.47;102444.59;5031923;28;20021;-69
2022/08/07 10:45:48;;;;;;;4.70;2.50;;;;;;;36.87;20.68;102446.25;5025876;28;20155;-69
2022/08/07 10:48:32;;;;;;;6.65;2.35;;;;;;;36.88;20.26;102447.06;5012803;28;20384;-69
2022/08/07 10:51:05;;;;;;;6.40;2.90;;;;;;;36.31;20.42;102437.06;5031629;28;20527;-69
2022/08/07 10:53:46;;;;;;;4.38;2.38;;;;;;;36.43;20.44;102439.84;5025000;28;20052;-68
2022/08/07 10:56:31;;;;;;;4.18;2.05;;;;;;;36.52;21.21;102429.03;5024110;28;20034;-68
2022/08/07 10:59:18;;;;;;;3.88;2.00;;;;;;;36.75;20.28;102431.19;5024916;28;20025;-69
2022/08/07 11:01:49;;;;;;;4.10;2.30;;;;;;;35.72;20.46;102429.28;5042922;28;20522;-70
2022/08/07 11:04:15;;;;;;;6.07;2.40;;;;;;;34.94;21.81;102422.88;5043996;28;20593;-70
2022/08/07 11:06:55;;;;;;;5.40;2.60;;;;;;;33.66;23.72;102424.13;5042170;28;20049;-70
2022/08/07 11:09:46;;;;;;;5.93;2.22;;;;;;;31.98;25.82;102423.78;5044692;28;20108;-69
2022/08/07 11:12:25;;;;;;;5.32;2.53;;;;;;;30.52;27.05;102416.88;5044371;28;20021;-69
2022/08/07 11:14:59;;;;;;;4.95;2.40;;;;;;;29.27;29.02;102409.41;5044774;28;20036;-70
2022/08/07 11:17:38;;;;;;;4.90;2.40;;;;;;;28.58;28.91;102412.34;5035278;28;20052;-70
2022/08/07 11:20:09;;;;;;;4.68;2.40;;;;;;;27.95;30.97;102408.22;5024490;28;20025;-69
2022/08/07 11:22:48;;;;;;;6.03;2.53;;;;;;;27.69;28.89;102405.00;5024105;28;20487;-69
2022/08/07 11:25:19;;;;;;;4.10;2.25;;;;;;;27.46;28.25;102395.50;5024227;28;20030;-69
2022/08/07 11:27:50;;;;;;;4.85;2.53;;;;;;;27.40;28.87;102400.38;5024086;28;20025;-70
2022/08/07 11:30:24;;;;;;;5.38;2.67;;;;;;;27.13;28.94;102389.00;5006854;28;20026;-69
2022/08/07 11:32:59;;;;;;;3.97;2.05;;;;;;;27.07;30.18;102393.88;5025719;28;20067;-69
2022/08/07 11:35:29;;;;;;;4.60;2.35;;;;;;;27.23;31.90;102383.19;5037384;28;20540;-69
2022/08/07 11:38:20;;;;;;;4.95;2.47;;;;;;;27.47;31.73;102385.03;5043888;28;20024;-70
2022/08/07 11:40:53;;;;;;;4.35;2.50;;;;;;;27.48;32.88;102383.91;5044266;28;20044;-70
2022/08/07 11:43:26;;;;;;;5.25;2.65;;;;;;;27.64;31.58;102383.34;5043782;28;20033;-70
2022/08/07 11:46:13;;;;;;;5.13;2.58;;;;;;;27.48;31.83;102372.63;5026847;28;20120;-70